createdAt,value
2022-11-10T00:00:02.296Z,0.00
2022-11-10T00:01:02.284Z,0.00
2022-11-10T00:02:02.276Z,0.00
2022-11-10T00:03:02.285Z,0.00
2022-11-10T00:04:02.330Z,0.00
2022-11-10T00:05:02.237Z,0.00
2022-11-10T00:06:02.233Z,0.00
2022-11-10T00:07:02.292Z,0.00
2022-11-10T00:08:02.208Z,0.00
2022-11-10T00:09:02.201Z,0.00
2022-11-10T00:10:02.192Z,0.00
2022-11-10T00:11:02.180Z,0.00
2022-11-10T00:12:02.167Z,0.00
2022-11-10T00:13:02.153Z,0.00
2022-11-10T00:14:02.142Z,0.00
2022-11-10T00:15:02.133Z,0.00
2022-11-10T00:16:02.121Z,0.00
2022-11-10T00:17:02.110Z,0.00
2022-11-10T00:18:02.098Z,0.00
2022-11-10T00:19:02.110Z,0.00
2022-11-10T00:20:02.153Z,0.00
2022-11-10T00:21:02.065Z,0.00
2022-11-10T00:22:02.060Z,0.00
2022-11-10T00:23:02.050Z,0.00
2022-11-10T00:24:02.032Z,0.00
2022-11-10T00:25:02.019Z,0.00
2022-11-10T00:26:02.011Z,0.00
2022-11-10T00:27:01.998Z,0.00
2022-11-10T00:28:01.987Z,0.00
2022-11-10T00:29:01.984Z,0.00
2022-11-10T00:30:01.964Z,0.00
2022-11-10T00:31:01.956Z,0.00
2022-11-10T00:32:01.947Z,0.00
2022-11-10T00:33:01.935Z,0.00
2022-11-10T00:34:01.924Z,0.00
2022-11-10T00:35:01.936Z,0.00
2022-11-10T00:36:01.900Z,0.00
2022-11-10T00:37:01.888Z,0.00
2022-11-10T00:38:01.876Z,0.00
2022-11-10T00:39:01.866Z,0.00
2022-11-10T00:40:01.852Z,0.00
2022-11-10T00:41:01.846Z,0.00
2022-11-10T00:42:01.837Z,0.00
2022-11-10T00:43:01.821Z,0.00
2022-11-10T00:44:01.809Z,0.00
2022-11-10T00:45:01.805Z,0.00
2022-11-10T00:46:01.787Z,0.00
2022-11-10T00:47:01.781Z,0.00
2022-11-10T00:48:01.767Z,0.00
2022-11-10T00:49:01.756Z,0.00
2022-11-10T00:50:01.743Z,0.00
2022-11-10T00:51:01.762Z,0.00
2022-11-10T00:52:01.721Z,0.00
2022-11-10T00:53:01.717Z,0.00
2022-11-10T00:54:01.699Z,0.00
2022-11-10T00:55:01.690Z,0.00
2022-11-10T00:56:01.679Z,0.00
2022-11-10T00:57:01.671Z,0.00
2022-11-10T00:58:01.656Z,0.00
2022-11-10T00:59:01.646Z,0.00
2022-11-10T01:00:01.635Z,0.00
2022-11-10T01:01:01.671Z,0.00
2022-11-10T01:02:01.613Z,0.00
2022-11-10T01:03:01.605Z,0.00
2022-11-10T01:04:01.591Z,0.00
2022-11-10T01:05:01.584Z,0.00
2022-11-10T01:06:01.569Z,0.00
2022-11-10T01:07:01.765Z,0.00
2022-11-10T01:08:01.548Z,0.00
2022-11-10T01:09:01.541Z,0.00
2022-11-10T01:10:01.525Z,0.00
2022-11-10T01:11:01.514Z,0.00
2022-11-10T01:12:01.503Z,0.00
2022-11-10T01:13:01.498Z,0.00
2022-11-10T01:14:01.495Z,0.00
2022-11-10T01:15:01.473Z,0.00
2022-11-10T01:16:01.463Z,0.00
2022-11-10T01:17:01.449Z,0.00
2022-11-10T01:18:01.441Z,0.00
2022-11-10T01:19:01.427Z,0.00
2022-11-10T01:20:01.417Z,0.00
2022-11-10T01:21:01.408Z,0.00
2022-11-10T01:22:01.393Z,0.00
2022-11-10T01:23:01.405Z,0.00
2022-11-10T01:24:01.380Z,0.00
2022-11-10T01:25:01.361Z,0.00
2022-11-10T01:26:01.351Z,0.00
2022-11-10T01:27:01.337Z,0.00
2022-11-10T01:28:01.325Z,0.00
2022-11-10T01:29:01.315Z,0.00
2022-11-10T01:30:01.309Z,0.00
2022-11-10T01:31:01.298Z,0.00
2022-11-10T01:32:01.282Z,0.00
2022-11-10T01:33:01.273Z,0.00
2022-11-10T01:34:01.265Z,0.00
2022-11-10T01:35:01.256Z,0.00
2022-11-10T01:36:01.242Z,0.00
2022-11-10T01:37:01.234Z,0.00
2022-11-10T01:38:01.217Z,0.00
2022-11-10T01:39:01.235Z,0.00
2022-11-10T01:40:01.274Z,0.00
2022-11-10T01:41:01.188Z,0.00
2022-11-10T01:42:01.192Z,0.00
2022-11-10T01:43:01.201Z,0.00
2022-11-10T01:44:01.218Z,0.00
2022-11-10T01:45:01.257Z,0.00
2022-11-10T01:46:01.242Z,0.00
2022-11-10T01:47:01.351Z,0.00
2022-11-10T01:48:01.140Z,0.00
2022-11-10T01:49:01.098Z,0.00
2022-11-10T01:50:01.087Z,0.00
2022-11-10T01:51:01.074Z,0.00
2022-11-10T01:52:01.064Z,0.00
2022-11-10T01:53:01.055Z,0.00
2022-11-10T01:54:01.046Z,0.00
2022-11-10T01:55:01.058Z,0.00
2022-11-10T01:56:01.025Z,0.00
2022-11-10T01:57:01.012Z,0.00
2022-11-10T01:58:00.996Z,0.00
2022-11-10T01:59:00.992Z,0.00
2022-11-10T02:00:00.978Z,0.00
2022-11-10T02:01:01.011Z,0.00
2022-11-10T02:02:00.954Z,0.00
2022-11-10T02:03:00.947Z,0.00
2022-11-10T02:04:00.932Z,0.00
2022-11-10T02:05:00.922Z,0.00
2022-11-10T02:06:00.913Z,0.00
2022-11-10T02:07:00.937Z,0.00
2022-11-10T02:08:00.889Z,0.00
2022-11-10T02:09:00.883Z,0.00
2022-11-10T02:10:00.872Z,0.00
2022-11-10T02:11:00.879Z,0.00
2022-11-10T02:12:00.846Z,0.00
2022-11-10T02:13:00.834Z,0.00
2022-11-10T02:14:00.832Z,0.00
2022-11-10T02:15:00.815Z,0.00
2022-11-10T02:16:00.801Z,0.00
2022-11-10T02:17:00.790Z,0.00
2022-11-10T02:18:00.783Z,0.00
2022-11-10T02:19:00.769Z,0.00
2022-11-10T02:20:00.758Z,0.00
2022-11-10T02:21:00.749Z,0.00
2022-11-10T02:22:00.738Z,0.00
2022-11-10T02:23:00.728Z,0.00
2022-11-10T02:24:00.713Z,0.00
2022-11-10T02:25:00.709Z,0.00
2022-11-10T02:26:00.692Z,0.00
2022-11-10T02:27:00.704Z,0.00
2022-11-10T02:28:00.669Z,0.00
2022-11-10T02:29:00.659Z,0.00
2022-11-10T02:30:00.647Z,0.00
2022-11-10T02:31:00.640Z,0.00
2022-11-10T02:32:00.626Z,0.00
2022-11-10T02:33:00.615Z,0.00
2022-11-10T02:34:00.605Z,0.00
2022-11-10T02:35:00.594Z,0.00
2022-11-10T02:36:00.580Z,0.00
2022-11-10T02:37:00.572Z,0.00
2022-11-10T02:38:00.559Z,0.00
2022-11-10T02:39:00.550Z,0.00
2022-11-10T02:40:00.538Z,0.00
2022-11-10T02:41:00.528Z,0.00
2022-11-10T02:42:00.520Z,0.00
2022-11-10T02:43:00.528Z,0.00
2022-11-10T02:44:00.492Z,0.00
2022-11-10T02:45:00.500Z,0.00
2022-11-10T02:46:00.471Z,0.00
2022-11-10T02:47:00.461Z,0.00
2022-11-10T02:48:00.456Z,0.00
2022-11-10T02:49:00.441Z,0.00
2022-11-10T02:50:00.429Z,0.00
2022-11-10T02:51:00.520Z,0.00
2022-11-10T02:52:00.405Z,0.00
2022-11-10T02:53:00.398Z,0.00
2022-11-10T02:54:00.389Z,0.00
2022-11-10T02:55:00.374Z,0.00
2022-11-10T02:56:00.364Z,0.00
2022-11-10T02:57:00.350Z,0.00
2022-11-10T02:58:00.339Z,0.00
2022-11-10T02:59:00.352Z,0.00
2022-11-10T03:00:00.323Z,0.00
2022-11-10T03:01:00.365Z,0.00
2022-11-10T03:02:00.306Z,0.00
2022-11-10T03:03:00.304Z,0.00
2022-11-10T03:04:00.280Z,0.00
2022-11-10T03:05:00.270Z,0.00
2022-11-10T03:06:00.253Z,0.00
2022-11-10T03:07:00.361Z,0.00
2022-11-10T03:08:00.230Z,0.00
2022-11-10T03:09:00.224Z,0.00
2022-11-10T03:10:00.416Z,0.00
2022-11-10T03:11:00.199Z,0.00
2022-11-10T03:12:00.191Z,0.00
2022-11-10T03:13:00.211Z,0.00
2022-11-10T03:14:02.555Z,0.00
2022-11-10T03:15:00.181Z,0.00
2022-11-10T03:16:00.141Z,0.00
2022-11-10T03:17:00.137Z,0.00
2022-11-10T03:18:00.121Z,0.00
2022-11-10T03:19:00.118Z,0.00
2022-11-10T03:20:00.111Z,0.00
2022-11-10T03:21:00.098Z,0.00
2022-11-10T03:22:00.087Z,0.00
2022-11-10T03:23:00.105Z,0.00
2022-11-10T03:24:00.053Z,0.00
2022-11-10T03:25:00.044Z,0.00
2022-11-10T03:26:00.030Z,0.00
2022-11-10T03:27:00.023Z,0.00
2022-11-10T03:28:00.007Z,0.00
2022-11-10T03:29:00.007Z,0.00
2022-11-10T03:29:59.990Z,0.00
2022-11-10T03:31:00.004Z,0.00
2022-11-10T03:31:59.965Z,0.00
2022-11-10T03:32:59.955Z,0.00
2022-11-10T03:33:59.944Z,0.00
2022-11-10T03:34:59.936Z,0.00
2022-11-10T03:35:59.924Z,0.00
2022-11-10T03:36:59.913Z,0.00
2022-11-10T03:37:59.900Z,0.00
2022-11-10T03:38:59.893Z,0.00
2022-11-10T03:39:59.877Z,0.00
2022-11-10T03:41:59.858Z,0.00
2022-11-10T03:42:59.850Z,0.00
2022-11-10T03:43:59.837Z,0.00
2022-11-10T03:44:59.829Z,0.00
2022-11-10T03:45:59.816Z,0.00
2022-11-10T03:46:59.827Z,0.00
2022-11-10T03:47:59.793Z,0.00
2022-11-10T03:48:59.780Z,0.00
2022-11-10T03:49:59.769Z,0.00
2022-11-10T03:50:59.760Z,0.00
2022-11-10T03:51:59.746Z,0.00
2022-11-10T03:52:59.739Z,0.00
2022-11-10T03:53:59.735Z,0.00
2022-11-10T03:55:03.317Z,0.00
2022-11-10T03:55:59.702Z,0.00
2022-11-10T03:56:59.694Z,0.00
2022-11-10T03:57:59.680Z,0.00
2022-11-10T03:58:59.674Z,0.00
2022-11-10T03:59:59.664Z,0.00
2022-11-10T04:00:59.652Z,0.00
2022-11-10T04:01:59.668Z,0.00
2022-11-10T04:02:59.652Z,0.00
2022-11-10T04:03:59.613Z,0.00
2022-11-10T04:04:59.617Z,0.00
2022-11-10T04:05:59.594Z,0.00
2022-11-10T04:06:59.607Z,0.00
2022-11-10T04:07:59.570Z,0.00
2022-11-10T04:08:59.565Z,0.00
2022-11-10T04:09:59.555Z,0.00
2022-11-10T04:10:59.537Z,0.00
2022-11-10T04:11:59.527Z,0.00
2022-11-10T04:12:59.516Z,0.00
2022-11-10T04:13:59.502Z,0.00
2022-11-10T04:14:59.494Z,0.00
2022-11-10T04:15:59.482Z,0.00
2022-11-10T04:16:59.475Z,0.00
2022-11-10T04:17:59.460Z,0.00
2022-11-10T04:18:59.474Z,0.00
2022-11-10T04:19:59.439Z,0.00
2022-11-10T04:20:59.429Z,0.00
2022-11-10T04:21:59.419Z,0.00
2022-11-10T04:22:59.406Z,0.00
2022-11-10T04:23:59.395Z,0.00
2022-11-10T04:24:59.381Z,0.00
2022-11-10T04:25:59.371Z,0.00
2022-11-10T04:26:59.365Z,0.00
2022-11-10T04:27:59.355Z,0.00
2022-11-10T04:28:59.339Z,0.00
2022-11-10T04:29:59.330Z,0.00
2022-11-10T04:30:59.316Z,0.00
2022-11-10T04:31:59.310Z,0.00
2022-11-10T04:32:59.297Z,0.00
2022-11-10T04:33:59.281Z,0.00
2022-11-10T04:34:59.298Z,0.00
2022-11-10T04:35:59.261Z,0.00
2022-11-10T04:36:59.258Z,0.00
2022-11-10T04:37:59.240Z,0.00
2022-11-10T04:38:59.230Z,0.00
2022-11-10T04:39:59.219Z,0.00
2022-11-10T04:40:59.212Z,0.00
2022-11-10T04:42:02.655Z,0.00
2022-11-10T04:42:59.186Z,0.00
2022-11-10T04:43:59.175Z,0.00
2022-11-10T04:44:59.168Z,0.00
2022-11-10T04:45:59.157Z,0.00
2022-11-10T04:46:59.140Z,0.00
2022-11-10T04:47:59.133Z,0.00
2022-11-10T04:48:59.125Z,0.00
2022-11-10T04:49:59.107Z,0.00
2022-11-10T04:50:59.125Z,0.00
2022-11-10T04:51:59.166Z,0.00
2022-11-10T04:52:59.076Z,0.00
2022-11-10T04:53:59.067Z,0.00
2022-11-10T04:54:59.051Z,0.00
2022-11-10T04:55:59.045Z,0.00
2022-11-10T04:56:59.031Z,0.00
2022-11-10T04:57:59.021Z,0.00
2022-11-10T04:58:59.008Z,0.00
2022-11-10T04:59:59.000Z,0.00
2022-11-10T05:00:59.037Z,0.00
2022-11-10T05:01:58.977Z,0.00
2022-11-10T05:02:58.964Z,0.00
2022-11-10T05:03:58.954Z,0.00
2022-11-10T05:04:58.942Z,0.00
2022-11-10T05:05:58.935Z,0.00
2022-11-10T05:06:58.996Z,0.00
2022-11-10T05:07:58.911Z,0.00
2022-11-10T05:08:58.908Z,0.00
2022-11-10T05:09:58.894Z,0.00
2022-11-10T05:10:58.876Z,0.00
2022-11-10T05:11:58.865Z,0.00
2022-11-10T05:12:58.856Z,0.00
2022-11-10T05:13:58.847Z,0.00
2022-11-10T05:14:58.836Z,0.00
2022-11-10T05:15:58.823Z,0.00
2022-11-10T05:16:58.810Z,0.00
2022-11-10T05:17:58.807Z,0.00
2022-11-10T05:18:58.792Z,0.00
2022-11-10T05:19:58.781Z,0.00
2022-11-10T05:20:58.771Z,0.00
2022-11-10T05:21:58.764Z,0.00
2022-11-10T05:22:58.767Z,0.00
2022-11-10T05:23:58.737Z,0.00
2022-11-10T05:24:58.724Z,0.00
2022-11-10T05:25:58.713Z,0.00
2022-11-10T05:26:58.700Z,0.00
2022-11-10T05:27:58.701Z,0.00
2022-11-10T05:28:58.679Z,0.00
2022-11-10T05:29:58.670Z,0.00
2022-11-10T05:30:58.667Z,0.00
2022-11-10T05:31:58.651Z,0.00
2022-11-10T05:32:59.055Z,0.00
2022-11-10T05:33:58.634Z,0.00
2022-11-10T05:34:58.614Z,0.00
2022-11-10T05:35:58.604Z,0.00
2022-11-10T05:36:58.593Z,0.00
2022-11-10T05:37:58.582Z,0.00
2022-11-10T05:38:58.591Z,0.00
2022-11-10T05:39:58.561Z,0.00
2022-11-10T05:40:58.550Z,0.00
2022-11-10T05:41:58.540Z,0.00
2022-11-10T05:42:58.524Z,0.00
2022-11-10T05:43:58.516Z,0.00
2022-11-10T05:44:58.505Z,0.00
2022-11-10T05:45:58.495Z,0.00
2022-11-10T05:46:58.481Z,0.00
2022-11-10T05:47:58.471Z,0.00
2022-11-10T05:48:58.461Z,0.00
2022-11-10T05:49:58.451Z,0.00
2022-11-10T05:50:58.438Z,0.00
2022-11-10T05:51:58.428Z,0.00
2022-11-10T05:52:58.419Z,0.00
2022-11-10T05:53:58.406Z,0.00
2022-11-10T05:54:58.419Z,0.00
2022-11-10T05:55:58.387Z,0.00
2022-11-10T05:56:58.375Z,0.00
2022-11-10T05:57:58.363Z,0.00
2022-11-10T05:58:58.351Z,0.00
2022-11-10T05:59:58.343Z,0.00
2022-11-10T06:00:58.333Z,0.00
2022-11-10T06:01:58.319Z,0.00
2022-11-10T06:02:58.308Z,4.00
2022-11-10T06:03:58.367Z,4.00
2022-11-10T06:04:58.286Z,4.00
2022-11-10T06:05:58.274Z,0.00
2022-11-10T06:06:58.346Z,4.00
2022-11-10T06:07:58.255Z,4.00
2022-11-10T06:08:58.243Z,4.00
2022-11-10T06:09:58.232Z,4.00
2022-11-10T06:10:58.252Z,8.00
2022-11-10T06:11:58.211Z,8.00
2022-11-10T06:12:58.204Z,8.00
2022-11-10T06:13:58.187Z,12.00
2022-11-10T06:14:58.209Z,12.00
2022-11-10T06:15:58.166Z,20.00
2022-11-10T06:16:58.152Z,20.00
2022-11-10T06:17:58.144Z,24.00
2022-11-10T06:18:58.130Z,28.00
2022-11-10T06:19:58.120Z,24.00
2022-11-10T06:20:58.109Z,36.00
2022-11-10T06:22:03.686Z,44.00
2022-11-10T06:22:58.090Z,52.00
2022-11-10T06:23:58.327Z,56.00
2022-11-10T06:24:58.066Z,60.00
2022-11-10T06:25:58.056Z,80.00
2022-11-10T06:26:58.065Z,88.00
2022-11-10T06:27:58.033Z,104.00
2022-11-10T06:28:58.025Z,132.00
2022-11-10T06:29:58.009Z,136.00
2022-11-10T06:30:58.002Z,152.00
2022-11-10T06:31:57.989Z,180.00
2022-11-10T06:32:57.982Z,200.00
2022-11-10T06:33:57.968Z,196.00
2022-11-10T06:35:00.659Z,232.00
2022-11-10T06:35:57.945Z,264.00
2022-11-10T06:36:57.933Z,288.00
2022-11-10T06:37:57.925Z,304.00
2022-11-10T06:38:57.909Z,344.00
2022-11-10T06:39:57.901Z,392.00
2022-11-10T06:40:57.889Z,388.00
2022-11-10T06:41:57.879Z,420.00
2022-11-10T06:42:57.890Z,476.00
2022-11-10T06:43:57.861Z,504.00
2022-11-10T06:44:57.844Z,492.00
2022-11-10T06:45:57.838Z,504.00
2022-11-10T06:46:57.821Z,576.00
2022-11-10T06:47:57.813Z,660.00
2022-11-10T06:48:57.803Z,688.00
2022-11-10T06:49:57.790Z,752.00
2022-11-10T06:50:57.779Z,820.00
2022-11-10T06:51:57.772Z,848.00
2022-11-10T06:52:57.765Z,900.00
2022-11-10T06:53:57.747Z,956.00
2022-11-10T06:54:57.735Z,1072.00
2022-11-10T06:55:57.726Z,1120.00
2022-11-10T06:56:57.715Z,1088.00
2022-11-10T06:57:57.707Z,1204.00
2022-11-10T06:58:57.717Z,1336.00
2022-11-10T06:59:57.747Z,1420.00
2022-11-10T07:00:57.683Z,1500.00
2022-11-10T07:01:57.677Z,1688.00
2022-11-10T07:02:57.647Z,1820.00
2022-11-10T07:04:18.758Z,1768.00
2022-11-10T07:04:58.651Z,1928.00
2022-11-10T07:05:57.621Z,1696.00
2022-11-10T07:06:57.640Z,1588.00
2022-11-10T07:07:57.595Z,1616.00
2022-11-10T07:08:57.582Z,1500.00
2022-11-10T07:09:58.912Z,1668.00
2022-11-10T07:10:57.560Z,1716.00
2022-11-10T07:11:57.576Z,1920.00
2022-11-10T07:12:57.548Z,2156.00
2022-11-10T07:13:57.526Z,2236.00
2022-11-10T07:14:57.536Z,2220.00
2022-11-10T07:15:57.511Z,2264.00
2022-11-10T07:16:57.491Z,2424.00
2022-11-10T07:17:57.481Z,2456.00
2022-11-10T07:18:57.474Z,2344.00
2022-11-10T07:19:57.460Z,2340.00
2022-11-10T07:20:57.450Z,2616.00
2022-11-10T07:21:57.440Z,2496.00
2022-11-10T07:22:57.434Z,2608.00
2022-11-10T07:23:57.418Z,2732.00
2022-11-10T07:24:57.403Z,2520.00
2022-11-10T07:25:57.391Z,2272.00
2022-11-10T07:26:57.377Z,2348.00
2022-11-10T07:27:57.375Z,2616.00
2022-11-10T07:28:57.359Z,2696.00
2022-11-10T07:29:57.346Z,3200.00
2022-11-10T07:30:57.360Z,3852.00
2022-11-10T07:31:57.325Z,3436.00
2022-11-10T07:32:57.322Z,2388.00
2022-11-10T07:33:57.302Z,2168.00
2022-11-10T07:34:57.290Z,2848.00
2022-11-10T07:35:57.281Z,4088.00
2022-11-10T07:36:57.274Z,4384.00
2022-11-10T07:37:57.259Z,4048.00
2022-11-10T07:38:57.249Z,4160.00
2022-11-10T07:39:57.234Z,4016.00
2022-11-10T07:40:57.224Z,4388.00
2022-11-10T07:41:57.216Z,4232.00
2022-11-10T07:42:57.214Z,3384.00
2022-11-10T07:43:57.240Z,3276.00
2022-11-10T07:44:57.179Z,3176.00
2022-11-10T07:45:57.169Z,3772.00
2022-11-10T07:46:57.184Z,3964.00
2022-11-10T07:47:57.146Z,2712.00
2022-11-10T07:48:57.136Z,1992.00
2022-11-10T07:49:57.125Z,2228.00
2022-11-10T07:50:57.116Z,2688.00
2022-11-10T07:51:57.100Z,2472.00
2022-11-10T07:52:57.089Z,1788.00
2022-11-10T07:53:57.084Z,2160.00
2022-11-10T07:54:57.068Z,2384.00
2022-11-10T07:55:57.057Z,2268.00
2022-11-10T07:56:57.044Z,1480.00
2022-11-10T07:57:57.040Z,1348.00
2022-11-10T07:58:57.027Z,1912.00
2022-11-10T07:59:58.196Z,2096.00
2022-11-10T08:00:57.000Z,2180.00
2022-11-10T08:01:57.079Z,2324.00
2022-11-10T08:02:56.999Z,2104.00
2022-11-10T08:03:56.968Z,2868.00
2022-11-10T08:04:56.954Z,2972.00
2022-11-10T08:05:56.948Z,3368.00
2022-11-10T08:06:57.125Z,4348.00
2022-11-10T08:07:57.006Z,4764.00
2022-11-10T08:08:56.917Z,5628.00
2022-11-10T08:09:56.901Z,6952.00
2022-11-10T08:10:56.889Z,8660.00
2022-11-10T08:11:56.877Z,8496.00
2022-11-10T08:12:56.866Z,7096.00
2022-11-10T08:13:56.864Z,8504.00
2022-11-10T08:14:56.858Z,13812.00
2022-11-10T08:15:56.836Z,14008.00
2022-11-10T08:16:56.823Z,10880.00
2022-11-10T08:17:56.813Z,8844.00
2022-11-10T08:18:56.825Z,9644.00
2022-11-10T08:19:56.791Z,10148.00
2022-11-10T08:20:56.782Z,9972.00
2022-11-10T08:21:56.768Z,10672.00
2022-11-10T08:22:56.756Z,10924.00
2022-11-10T08:23:56.749Z,7600.00
2022-11-10T08:24:56.733Z,7232.00
2022-11-10T08:25:56.726Z,6780.00
2022-11-10T08:26:56.713Z,7320.00
2022-11-10T08:27:56.701Z,7016.00
2022-11-10T08:28:56.687Z,6272.00
2022-11-10T08:29:56.688Z,6604.00
2022-11-10T08:30:59.383Z,8464.00
2022-11-10T08:31:56.719Z,7232.00
2022-11-10T08:32:56.661Z,7456.00
2022-11-10T08:33:56.633Z,7276.00
2022-11-10T08:34:56.647Z,7636.00
2022-11-10T08:35:56.612Z,8416.00
2022-11-10T08:36:56.598Z,8516.00
2022-11-10T08:37:56.599Z,8140.00
2022-11-10T08:38:56.576Z,9300.00
2022-11-10T08:39:56.567Z,10148.00
2022-11-10T08:40:56.565Z,7480.00
2022-11-10T08:41:56.551Z,4832.00
2022-11-10T08:42:56.531Z,4780.00
2022-11-10T08:43:56.525Z,5572.00
2022-11-10T08:44:56.533Z,5848.00
2022-11-10T08:45:56.526Z,5916.00
2022-11-10T08:46:56.581Z,6456.00
2022-11-10T08:47:56.535Z,9284.00
2022-11-10T08:48:56.644Z,15968.00
2022-11-10T08:49:56.547Z,19488.00
2022-11-10T08:50:56.609Z,13768.00
2022-11-10T08:51:56.595Z,17472.00
2022-11-10T08:52:56.564Z,13968.00
2022-11-10T08:53:56.414Z,18208.00
2022-11-10T08:54:56.399Z,19712.00
2022-11-10T08:55:56.394Z,17632.00
2022-11-10T08:56:56.382Z,24928.00
2022-11-10T08:57:56.394Z,27200.00
2022-11-10T08:58:56.355Z,12516.00
2022-11-10T08:59:56.351Z,13800.00
2022-11-10T09:00:56.344Z,22592.00
2022-11-10T09:01:56.324Z,15680.00
2022-11-10T09:02:56.368Z,10828.00
2022-11-10T09:03:56.304Z,14008.00
2022-11-10T09:04:56.398Z,15268.00
2022-11-10T09:05:58.525Z,14356.00
2022-11-10T09:06:56.336Z,10788.00
2022-11-10T09:07:56.260Z,14012.00
2022-11-10T09:08:56.266Z,17568.00
2022-11-10T09:10:06.685Z,37056.00
2022-11-10T09:10:57.261Z,33888.00
2022-11-10T09:11:56.213Z,26720.00
2022-11-10T09:12:56.214Z,24160.00
2022-11-10T09:13:56.198Z,24576.00
2022-11-10T09:14:56.182Z,28224.00
2022-11-10T09:15:56.173Z,29984.00
2022-11-10T09:16:56.160Z,31712.00
2022-11-10T09:17:56.147Z,29024.00
2022-11-10T09:18:56.142Z,11456.00
2022-11-10T09:19:56.195Z,12288.00
2022-11-10T09:20:56.121Z,37280.00
2022-11-10T09:21:56.110Z,35008.00
2022-11-10T09:22:56.118Z,27904.00
2022-11-10T09:23:56.083Z,30304.00
2022-11-10T09:24:56.073Z,10344.00
2022-11-10T09:25:56.058Z,32384.00
2022-11-10T09:26:56.058Z,33952.00
2022-11-10T09:27:56.059Z,32096.00
2022-11-10T09:28:56.028Z,30208.00
2022-11-10T09:29:56.015Z,28960.00
2022-11-10T09:30:56.008Z,28640.00
2022-11-10T09:31:55.995Z,28384.00
2022-11-10T09:32:55.984Z,31840.00
2022-11-10T09:33:55.971Z,18816.00
2022-11-10T09:34:55.961Z,32832.00
2022-11-10T09:35:55.947Z,37408.00
2022-11-10T09:36:55.938Z,36736.00
2022-11-10T09:37:55.923Z,32448.00
2022-11-10T09:38:55.944Z,33536.00
2022-11-10T09:40:01.126Z,36928.00
2022-11-10T09:40:55.895Z,40544.00
2022-11-10T09:41:55.884Z,50560.00
2022-11-10T09:42:55.874Z,57600.00
2022-11-10T09:43:55.868Z,62560.00
2022-11-10T09:44:55.855Z,42976.00
2022-11-10T09:45:55.842Z,63968.00
2022-11-10T09:46:55.833Z,63520.00
2022-11-10T09:47:57.790Z,50336.00
2022-11-10T09:48:55.809Z,20416.00
2022-11-10T09:49:55.797Z,13464.00
2022-11-10T09:50:55.792Z,18528.00
2022-11-10T09:51:55.819Z,27648.00
2022-11-10T09:52:55.766Z,35776.00
2022-11-10T09:53:55.753Z,29504.00
2022-11-10T09:54:55.764Z,35232.00
2022-11-10T09:55:55.729Z,22944.00
2022-11-10T09:56:55.723Z,47712.00
2022-11-10T09:57:55.708Z,66848.00
2022-11-10T09:58:55.699Z,74656.00
2022-11-10T09:59:55.690Z,75936.00
2022-11-10T10:00:55.676Z,29056.00
2022-11-10T10:01:55.706Z,61632.00
2022-11-10T10:02:55.655Z,64192.00
2022-11-10T10:03:55.708Z,46816.00
2022-11-10T10:04:55.651Z,23744.00
2022-11-10T10:05:55.622Z,23968.00
2022-11-10T10:07:10.175Z,22432.00
2022-11-10T10:07:55.680Z,24800.00
2022-11-10T10:08:55.590Z,21472.00
2022-11-10T10:09:55.579Z,18624.00
2022-11-10T10:10:55.601Z,18560.00
2022-11-10T10:11:55.563Z,18080.00
2022-11-10T10:12:55.546Z,18432.00
2022-11-10T10:13:55.537Z,19232.00
2022-11-10T10:14:55.523Z,18912.00
2022-11-10T10:15:55.514Z,16896.00
2022-11-10T10:16:55.522Z,16036.00
2022-11-10T10:17:55.489Z,15528.00
2022-11-10T10:18:55.482Z,15204.00
2022-11-10T10:19:55.470Z,15184.00
2022-11-10T10:20:55.457Z,14800.00
2022-11-10T10:21:55.445Z,14592.00
2022-11-10T10:22:55.434Z,14448.00
2022-11-10T10:24:15.221Z,14200.00
2022-11-10T10:24:56.438Z,13928.00
2022-11-10T10:25:55.439Z,13656.00
2022-11-10T10:26:55.416Z,13420.00
2022-11-10T10:27:55.395Z,13104.00
2022-11-10T10:28:55.371Z,12732.00
2022-11-10T10:29:55.362Z,12856.00
2022-11-10T10:30:55.345Z,12788.00
2022-11-10T10:31:55.335Z,12864.00
2022-11-10T10:32:55.324Z,12764.00
2022-11-10T10:33:55.315Z,12564.00
2022-11-10T10:34:55.304Z,13304.00
2022-11-10T10:35:55.297Z,14980.00
2022-11-10T10:36:55.287Z,13900.00
2022-11-10T10:37:55.275Z,11024.00
2022-11-10T10:38:55.271Z,10648.00
2022-11-10T10:39:55.261Z,10856.00
2022-11-10T10:40:55.240Z,8668.00
2022-11-10T10:41:55.231Z,7316.00
2022-11-10T10:42:55.251Z,7820.00
2022-11-10T10:43:55.204Z,7044.00
2022-11-10T10:44:55.197Z,7148.00
2022-11-10T10:45:55.185Z,8676.00
2022-11-10T10:46:55.176Z,9220.00
2022-11-10T10:47:55.163Z,9180.00
2022-11-10T10:49:22.186Z,8296.00
2022-11-10T10:49:55.244Z,7784.00
2022-11-10T10:50:55.156Z,7820.00
2022-11-10T10:51:55.119Z,7944.00
2022-11-10T10:52:55.110Z,8076.00
2022-11-10T10:53:55.096Z,7680.00
2022-11-10T10:54:55.087Z,7812.00
2022-11-10T10:55:55.072Z,7860.00
2022-11-10T10:56:55.066Z,8244.00
2022-11-10T10:57:55.051Z,7596.00
2022-11-10T10:58:55.064Z,7096.00
2022-11-10T10:59:55.159Z,6996.00
2022-11-10T11:00:55.036Z,7236.00
2022-11-10T11:01:55.140Z,7144.00
2022-11-10T11:02:56.511Z,6996.00
2022-11-10T11:03:54.985Z,6880.00
2022-11-10T11:04:54.975Z,6980.00
2022-11-10T11:05:54.963Z,6960.00
2022-11-10T11:06:55.005Z,6780.00
2022-11-10T11:07:54.943Z,6784.00
2022-11-10T11:08:59.247Z,6984.00
2022-11-10T11:09:54.920Z,7148.00
2022-11-10T11:10:54.911Z,7428.00
2022-11-10T11:11:54.898Z,8024.00
2022-11-10T11:12:54.995Z,7844.00
2022-11-10T11:13:55.156Z,7808.00
2022-11-10T11:14:54.899Z,8016.00
2022-11-10T11:15:54.852Z,8476.00
2022-11-10T11:16:54.847Z,9064.00
2022-11-10T11:17:54.835Z,9516.00
2022-11-10T11:18:54.828Z,11360.00
2022-11-10T11:19:59.845Z,13136.00
2022-11-10T11:20:54.803Z,11756.00
2022-11-10T11:21:54.789Z,11080.00
2022-11-10T11:22:54.778Z,11156.00
2022-11-10T11:23:54.966Z,11520.00
2022-11-10T11:24:54.755Z,12420.00
2022-11-10T11:25:54.933Z,17632.00
2022-11-10T11:26:54.736Z,16672.00
2022-11-10T11:27:54.722Z,15668.00
2022-11-10T11:28:54.722Z,14560.00
2022-11-10T11:29:54.702Z,14792.00
2022-11-10T11:30:54.716Z,12568.00
2022-11-10T11:31:54.680Z,11288.00
2022-11-10T11:32:54.667Z,9924.00
2022-11-10T11:33:54.664Z,9872.00
2022-11-10T11:34:54.646Z,8924.00
2022-11-10T11:35:54.632Z,8344.00
2022-11-10T11:36:54.627Z,8428.00
2022-11-10T11:37:54.610Z,7652.00
2022-11-10T11:38:54.608Z,7440.00
2022-11-10T11:39:54.590Z,6988.00
2022-11-10T11:40:54.581Z,6396.00
2022-11-10T11:41:54.568Z,7448.00
2022-11-10T11:42:54.567Z,7352.00
2022-11-10T11:43:54.550Z,7292.00
2022-11-10T11:44:54.542Z,6632.00
2022-11-10T11:45:54.625Z,7524.00
2022-11-10T11:46:54.547Z,8312.00
2022-11-10T11:47:54.497Z,7876.00
2022-11-10T11:48:54.494Z,7228.00
2022-11-10T11:49:54.667Z,6636.00
2022-11-10T11:50:54.957Z,8440.00
2022-11-10T11:51:54.455Z,9540.00
2022-11-10T11:52:54.449Z,8840.00
2022-11-10T11:53:54.435Z,9260.00
2022-11-10T11:54:54.418Z,9780.00
2022-11-10T11:55:54.409Z,10996.00
2022-11-10T11:56:54.399Z,10188.00
2022-11-10T11:57:54.385Z,9792.00
2022-11-10T11:58:54.382Z,10304.00
2022-11-10T11:59:54.390Z,10652.00
2022-11-10T12:00:54.355Z,9860.00
2022-11-10T12:01:54.339Z,9680.00
2022-11-10T12:02:54.470Z,9144.00
2022-11-10T12:03:54.471Z,8384.00
2022-11-10T12:04:54.397Z,10856.00
2022-11-10T12:05:54.318Z,11588.00
2022-11-10T12:06:54.822Z,9680.00
2022-11-10T12:07:54.294Z,10096.00
2022-11-10T12:08:54.285Z,10004.00
2022-11-10T12:09:54.256Z,11044.00
2022-11-10T12:10:54.243Z,9496.00
2022-11-10T12:11:54.535Z,10028.00
2022-11-10T12:12:54.221Z,10200.00
2022-11-10T12:13:54.224Z,12544.00
2022-11-10T12:14:54.200Z,12724.00
2022-11-10T12:15:54.185Z,12304.00
2022-11-10T12:16:54.175Z,12660.00
2022-11-10T12:17:54.165Z,12340.00
2022-11-10T12:18:54.176Z,11140.00
2022-11-10T12:19:54.142Z,10752.00
2022-11-10T12:20:54.134Z,11732.00
2022-11-10T12:21:54.124Z,11128.00
2022-11-10T12:22:54.112Z,11120.00
2022-11-10T12:23:54.105Z,10832.00
2022-11-10T12:24:54.090Z,9180.00
2022-11-10T12:25:54.080Z,9168.00
2022-11-10T12:26:54.072Z,9524.00
2022-11-10T12:27:54.054Z,9988.00
2022-11-10T12:28:54.050Z,8824.00
2022-11-10T12:29:54.040Z,8276.00
2022-11-10T12:30:57.692Z,8424.00
2022-11-10T12:31:54.029Z,8804.00
2022-11-10T12:32:54.021Z,8644.00
2022-11-10T12:33:53.990Z,8300.00
2022-11-10T12:34:54.008Z,8168.00
2022-11-10T12:35:53.967Z,7688.00
2022-11-10T12:36:53.957Z,8548.00